Time;durP1;ratioP1;P1;durP2;ratioP2;P2;SDS_P1;SDS_P2;PMS_P1;PMS_P2;Temp;Humidity;BMP_temperature;BMP_pressure;BME280_temperature;BME280_humidity;BME280_pressure;Samples;Min_cycle;Max_cycle;Signal;HPM_P1;HPM_P2
2023/01/20 00:01:20;;;;;;;24.90;11.67;;;;;;;;;;4972451;28;20444;-63
2023/01/20 00:03:46;;;;;;;24.27;11.43;;;;;;;;;;4972680;28;20441;-63
2023/01/20 00:06:13;;;;;;;23.60;11.60;;;;;;;;;;4972538;28;20432;-63
2023/01/20 00:08:40;;;;;;;22.70;10.90;;;;;;;;;;4972351;28;20508;-63
2023/01/20 00:11:07;;;;;;;22.13;11.63;;;;;;;;;;4972807;28;20440;-63
2023/01/20 00:13:52;;;;;;;23.13;11.53;;;;;;;;;;4971836;28;20551;-63
2023/01/20 00:16:19;;;;;;;22.87;10.70;;;;;;;;;;4972443;28;20430;-63
2023/01/20 00:18:46;;;;;;;19.03;10.43;;;;;;;;;;4971125;28;20808;-63
2023/01/20 00:21:12;;;;;;;18.77;10.53;;;;;;;;;;4971880;28;20440;-63
2023/01/20 00:23:39;;;;;;;22.47;11.87;;;;;;;;;;4972430;28;20837;-63
2023/01/20 00:26:23;;;;;;;23.17;10.87;;;;;;;;;;4972486;28;20825;-63
2023/01/20 00:28:52;;;;;;;21.67;10.87;;;;;;;;;;4972303;28;20428;-63
2023/01/20 00:31:28;;;;;;;21.17;10.53;;;;;;;;;;4972343;28;20437;-63
2023/01/20 00:33:55;;;;;;;23.47;12.10;;;;;;;;;;4971783;28;20468;-63
2023/01/20 00:36:22;;;;;;;27.00;12.10;;;;;;;;;;4971872;28;20445;-63
2023/01/20 00:38:49;;;;;;;25.20;12.07;;;;;;;;;;4971977;28;20441;-63
2023/01/20 00:41:16;;;;;;;26.63;13.50;;;;;;;;;;4972111;28;20433;-63
2023/01/20 00:44:00;;;;;;;25.17;13.40;;;;;;;;;;4971934;28;20863;-63
2023/01/20 00:46:26;;;;;;;26.10;13.70;;;;;;;;;;4971743;28;20429;-63
2023/01/20 00:48:53;;;;;;;30.83;13.67;;;;;;;;;;4969917;28;20523;-63
2023/01/20 00:51:20;;;;;;;26.23;13.63;;;;;;;;;;4971968;28;20437;-63
2023/01/20 00:53:46;;;;;;;26.47;12.83;;;;;;;;;;4970288;28;20472;-62
2023/01/20 00:56:13;;;;;;;23.07;12.53;;;;;;;;;;4971727;28;20507;-63
2023/01/20 00:58:41;;;;;;;23.63;13.53;;;;;;;;;;4971443;28;20437;-63
2023/01/20 01:01:07;;;;;;;22.17;11.47;;;;;;;;;;4971540;28;20436;-63
2023/01/20 01:03:34;;;;;;;23.50;11.90;;;;;;;;;;4971604;28;20466;-63
2023/01/20 01:06:08;;;;;;;24.87;11.50;;;;;;;;;;4971382;28;20492;-62
2023/01/20 01:08:35;;;;;;;22.83;10.47;;;;;;;;;;4970228;28;20429;-62
2023/01/20 01:11:02;;;;;;;22.53;11.77;;;;;;;;;;4971304;28;20425;-63
2023/01/20 01:13:28;;;;;;;20.67;10.43;;;;;;;;;;4971053;28;20480;-62
2023/01/20 01:15:55;;;;;;;24.43;12.00;;;;;;;;;;4971201;28;20437;-63
2023/01/20 01:18:21;;;;;;;26.47;12.30;;;;;;;;;;4971065;28;20432;-62
2023/01/20 01:20:48;;;;;;;19.93;9.87;;;;;;;;;;4970011;28;20416;-62
2023/01/20 01:23:15;;;;;;;24.97;12.20;;;;;;;;;;4971514;28;20432;-62
2023/01/20 01:25:41;;;;;;;21.33;10.33;;;;;;;;;;4971055;28;20484;-62
2023/01/20 01:28:08;;;;;;;14.93;7.47;;;;;;;;;;4970934;28;20463;-62
2023/01/20 01:30:35;;;;;;;17.70;7.57;;;;;;;;;;4971336;28;20479;-62
2023/01/20 01:33:01;;;;;;;21.47;9.67;;;;;;;;;;4970819;28;20464;-62
2023/01/20 01:35:28;;;;;;;20.63;9.90;;;;;;;;;;4971687;28;20420;-62
2023/01/20 01:38:12;;;;;;;24.83;10.73;;;;;;;;;;4971260;28;20420;-62
2023/01/20 01:40:39;;;;;;;25.83;11.67;;;;;;;;;;4971094;28;20978;-62
2023/01/20 02:20:04;;;;;;;22.77;10.67;;;;;;;;;;4974336;28;21000;-62
2023/01/20 02:22:33;;;;;;;24.20;11.13;;;;;;;;;;4974141;28;20472;-62
2023/01/20 02:25:18;;;;;;;24.33;11.37;;;;;;;;;;4974103;28;20440;-62
2023/01/20 02:27:45;;;;;;;25.33;12.80;;;;;;;;;;5005307;28;20777;-62
2023/01/20 02:30:12;;;;;;;28.53;12.53;;;;;;;;;;4974471;28;20500;-62
2023/01/20 02:32:38;;;;;;;16.43;7.03;;;;;;;;;;4974540;28;21011;-63
2023/01/20 02:35:08;;;;;;;13.90;7.17;;;;;;;;;;4974387;28;20507;-62
2023/01/20 02:37:41;;;;;;;30.53;14.17;;;;;;;;;;4974227;28;20472;-62
2023/01/20 02:40:25;;;;;;;31.03;14.13;;;;;;;;;;4973915;28;21022;-62
2023/01/20 02:43:05;;;;;;;32.87;14.47;;;;;;;;;;4973798;28;20437;-63
2023/01/20 02:45:44;;;;;;;31.43;13.23;;;;;;;;;;4972190;28;20471;-62
2023/01/20 02:48:13;;;;;;;28.63;13.37;;;;;;;;;;4973914;28;20527;-61
2023/01/20 02:50:59;;;;;;;29.20;13.67;;;;;;;;;;4974062;28;20427;-61
2023/01/20 02:53:27;;;;;;;27.43;12.17;;;;;;;;;;4974301;28;20500;-61
2023/01/20 02:55:53;;;;;;;22.77;10.83;;;;;;;;;;4972720;28;20476;-61
2023/01/20 02:58:36;;;;;;;30.20;13.97;;;;;;;;;;4972617;28;20441;-61
2023/01/20 03:01:23;;;;;;;28.30;13.50;;;;;;;;;;4972511;28;20428;-61
2023/01/20 03:03:51;;;;;;;27.90;12.70;;;;;;;;;;4973729;28;20448;-61
2023/01/20 03:06:18;;;;;;;28.33;13.93;;;;;;;;;;4974003;28;20435;-61
2023/01/20 03:08:45;;;;;;;32.57;14.97;;;;;;;;;;4956601;28;20535;-61
2023/01/20 03:11:12;;;;;;;30.77;15.60;;;;;;;;;;4972632;28;20495;-61
2023/01/20 03:13:56;;;;;;;31.73;14.63;;;;;;;;;;4973531;28;20464;-62
2023/01/20 03:16:23;;;;;;;28.27;12.80;;;;;;;;;;4972939;28;20433;-61
2023/01/20 03:19:08;;;;;;;29.30;13.13;;;;;;;;;;4973457;28;20861;-61
2023/01/20 03:21:35;;;;;;;29.93;13.77;;;;;;;;;;4972327;28;20433;-61
2023/01/20 03:24:19;;;;;;;31.23;12.63;;;;;;;;;;4972457;28;20467;-61
2023/01/20 03:26:45;;;;;;;29.13;14.10;;;;;;;;;;4973415;28;20495;-61
2023/01/20 03:29:14;;;;;;;34.63;15.00;;;;;;;;;;4973809;28;20433;-61
2023/01/20 03:31:45;;;;;;;30.17;14.90;;;;;;;;;;4973265;28;20439;-61
2023/01/20 03:34:16;;;;;;;29.67;14.67;;;;;;;;;;4972046;28;20539;-62
2023/01/20 03:37:00;;;;;;;29.83;14.40;;;;;;;;;;4973500;28;21367;-61
2023/01/20 03:39:26;;;;;;;29.63;14.13;;;;;;;;;;4972077;28;20475;-61
2023/01/20 03:41:53;;;;;;;27.57;13.50;;;;;;;;;;4971905;28;20436;-61
2023/01/20 03:44:22;;;;;;;29.93;14.10;;;;;;;;;;4973565;28;20425;-62
2023/01/20 03:46:52;;;;;;;30.33;14.27;;;;;;;;;;4971797;28;20440;-61
2023/01/20 03:49:39;;;;;;;29.97;14.23;;;;;;;;;;4990494;28;20436;-61
2023/01/20 03:52:11;;;;;;;31.33;14.63;;;;;;;;;;4973155;28;20424;-61
2023/01/20 03:54:57;;;;;;;29.17;14.07;;;;;;;;;;4973001;28;20784;-61
2023/01/20 03:57:25;;;;;;;28.83;13.50;;;;;;;;;;4971666;28;20424;-62
2023/01/20 04:00:09;;;;;;;29.93;13.77;;;;;;;;;;4971997;28;20516;-61
2023/01/20 04:02:39;;;;;;;28.37;13.70;;;;;;;;;;4971787;28;20527;-61
2023/01/20 04:05:23;;;;;;;28.27;13.50;;;;;;;;;;4972893;28;20916;-63
2023/01/20 04:07:49;;;;;;;31.50;14.10;;;;;;;;;;4971724;28;20495;-61
2023/01/20 04:10:34;;;;;;;28.93;13.77;;;;;;;;;;4971619;28;20421;-61
2023/01/20 04:13:00;;;;;;;31.30;15.43;;;;;;;;;;4972634;28;20519;-61
2023/01/20 04:15:45;;;;;;;30.57;14.53;;;;;;;;;;4972366;28;20479;-61
2023/01/20 04:18:15;;;;;;;33.43;14.63;;;;;;;;;;4971144;28;20464;-61
2023/01/20 04:21:00;;;;;;;33.87;14.53;;;;;;;;;;4970022;28;20423;-61
2023/01/20 04:23:29;;;;;;;31.27;14.37;;;;;;;;;;4984160;28;20984;-61
2023/01/20 04:25:56;;;;;;;29.13;14.10;;;;;;;;;;4983815;28;20846;-61
2023/01/20 04:28:23;;;;;;;30.77;15.40;;;;;;;;;;4951510;28;20430;-62
2023/01/20 04:30:49;;;;;;;29.33;14.43;;;;;;;;;;4953187;28;20438;-61
2023/01/20 04:33:37;;;;;;;30.63;14.67;;;;;;;;;;4952892;29;20980;-62
2023/01/20 04:36:03;;;;;;;30.43;15.07;;;;;;;;;;4952596;28;20442;-61
2023/01/20 04:38:47;;;;;;;31.30;14.13;;;;;;;;;;4952750;29;20410;-62
2023/01/20 04:41:14;;;;;;;29.67;13.93;;;;;;;;;;4952901;28;20426;-61
2023/01/20 04:43:58;;;;;;;29.00;14.17;;;;;;;;;;4952738;29;20417;-61
2023/01/20 04:46:25;;;;;;;31.90;15.40;;;;;;;;;;4952510;28;20430;-61
2023/01/20 04:49:09;;;;;;;29.90;15.27;;;;;;;;;;4952632;29;20597;-62
2023/01/20 04:51:36;;;;;;;30.30;14.90;;;;;;;;;;4952627;28;20516;-61
2023/01/20 04:54:03;;;;;;;34.20;14.97;;;;;;;;;;4952344;28;20501;-61
2023/01/20 04:56:29;;;;;;;30.97;15.87;;;;;;;;;;4952475;28;20434;-61
2023/01/20 04:58:56;;;;;;;33.77;16.40;;;;;;;;;;4952464;28;20802;-61
2023/01/20 05:01:23;;;;;;;33.13;15.37;;;;;;;;;;4952210;28;20437;-62
2023/01/20 05:03:49;;;;;;;36.63;17.73;;;;;;;;;;4952360;28;20438;-62
2023/01/20 05:06:17;;;;;;;36.80;16.83;;;;;;;;;;4952283;28;20430;-61
2023/01/20 05:09:01;;;;;;;33.30;15.23;;;;;;;;;;4952147;29;20821;-61
2023/01/20 05:11:28;;;;;;;38.57;16.40;;;;;;;;;;4952306;28;20433;-61
2023/01/20 05:13:55;;;;;;;32.03;16.10;;;;;;;;;;4952381;28;20480;-61
2023/01/20 05:16:24;;;;;;;30.63;14.53;;;;;;;;;;4951814;28;20493;-61
2023/01/20 05:18:51;;;;;;;34.37;16.40;;;;;;;;;;4952060;28;20964;-61
2023/01/20 05:21:17;;;;;;;38.73;17.17;;;;;;;;;;4956727;28;20943;-62
2023/01/20 05:23:44;;;;;;;36.20;17.77;;;;;;;;;;4971107;28;20527;-61
2023/01/20 05:26:11;;;;;;;38.57;17.70;;;;;;;;;;4971410;28;20436;-61
2023/01/20 05:28:38;;;;;;;34.63;16.40;;;;;;;;;;4971527;28;21058;-61
2023/01/20 05:31:04;;;;;;;35.37;16.73;;;;;;;;;;4970978;28;20428;-61
2023/01/20 05:33:31;;;;;;;34.03;16.27;;;;;;;;;;4971073;28;20476;-61
2023/01/20 05:36:15;;;;;;;31.77;16.70;;;;;;;;;;4971038;28;20429;-62
2023/01/20 05:38:42;;;;;;;38.57;18.07;;;;;;;;;;4971022;28;20433;-61
2023/01/20 05:41:09;;;;;;;37.43;17.53;;;;;;;;;;4970933;28;20444;-61
2023/01/20 05:43:35;;;;;;;32.17;14.30;;;;;;;;;;4970966;28;20440;-61
2023/01/20 05:46:02;;;;;;;32.07;15.10;;;;;;;;;;4970842;28;20531;-61
2023/01/20 05:48:29;;;;;;;33.47;15.93;;;;;;;;;;4970979;28;20896;-61
2023/01/20 05:51:11;;;;;;;35.87;16.83;;;;;;;;;;4948905;28;20461;-61
2023/01/20 05:53:37;;;;;;;34.83;16.17;;;;;;;;;;4971020;28;21193;-62
2023/01/20 05:56:04;;;;;;;32.77;16.53;;;;;;;;;;4970908;28;20433;-61
2023/01/20 05:58:31;;;;;;;35.83;16.20;;;;;;;;;;4970897;28;20856;-61
2023/01/20 06:01:04;;;;;;;27.63;13.90;;;;;;;;;;4970869;28;20721;-61
2023/01/20 06:03:31;;;;;;;27.93;12.77;;;;;;;;;;4971036;28;20443;-61
2023/01/20 06:05:58;;;;;;;32.13;13.97;;;;;;;;;;4970751;28;20433;-61
2023/01/20 06:08:25;;;;;;;31.97;14.10;;;;;;;;;;4970832;28;20951;-61
2023/01/20 06:10:52;;;;;;;36.67;15.50;;;;;;;;;;4971038;28;20504;-61
2023/01/20 06:13:38;;;;;;;32.17;14.57;;;;;;;;;;4970850;28;20794;-61
2023/01/20 06:16:05;;;;;;;31.70;15.40;;;;;;;;;;4970716;28;20436;-61
2023/01/20 06:18:33;;;;;;;28.73;14.03;;;;;;;;;;4970457;28;20456;-61
2023/01/20 06:20:59;;;;;;;31.80;15.17;;;;;;;;;;4970672;28;20437;-61
2023/01/20 06:23:26;;;;;;;31.13;14.60;;;;;;;;;;4970802;28;20445;-61
2023/01/20 06:26:11;;;;;;;28.87;13.40;;;;;;;;;;4970640;28;20417;-62
2023/01/20 06:28:38;;;;;;;34.03;14.97;;;;;;;;;;4969582;28;20464;-61
2023/01/20 06:31:05;;;;;;;30.93;14.40;;;;;;;;;;4970442;28;20452;-61
2023/01/20 06:33:32;;;;;;;33.03;14.97;;;;;;;;;;4970399;28;20464;-61
2023/01/20 06:35:59;;;;;;;49.03;22.87;;;;;;;;;;4970641;28;20440;-61
2023/01/20 06:38:27;;;;;;;60.73;24.43;;;;;;;;;;4970606;28;21227;-61
2023/01/20 06:40:57;;;;;;;58.87;25.70;;;;;;;;;;4969311;28;21031;-61
2023/01/20 06:43:24;;;;;;;35.03;17.23;;;;;;;;;;4969979;28;20938;-61
2023/01/20 06:45:51;;;;;;;34.63;17.40;;;;;;;;;;4970403;28;21008;-62
2023/01/20 06:48:17;;;;;;;41.00;20.00;;;;;;;;;;4970375;28;20437;-61
2023/01/20 06:50:44;;;;;;;67.47;24.87;;;;;;;;;;4970382;28;20428;-61
2023/01/20 06:53:28;;;;;;;30.83;16.03;;;;;;;;;;4973725;28;20471;-61
2023/01/20 06:55:55;;;;;;;44.93;18.33;;;;;;;;;;4974012;28;20437;-61
2023/01/20 06:58:40;;;;;;;53.50;21.53;;;;;;;;;;4973811;28;20474;-62
2023/01/20 07:01:11;;;;;;;44.77;19.40;;;;;;;;;;4973882;28;20432;-62
2023/01/20 07:03:55;;;;;;;51.87;20.17;;;;;;;;;;4973834;28;20443;-61
2023/01/20 07:06:24;;;;;;;78.33;26.37;;;;;;;;;;4973803;28;20797;-61
2023/01/20 07:08:51;;;;;;;33.10;15.87;;;;;;;;;;4973692;28;20437;-62
2023/01/20 07:11:18;;;;;;;31.63;15.50;;;;;;;;;;4973859;28;20433;-61
2023/01/20 07:13:44;;;;;;;82.60;30.07;;;;;;;;;;4973307;28;20536;-61
2023/01/20 07:16:11;;;;;;;116.30;40.53;;;;;;;;;;4973748;28;20437;-62
2023/01/20 07:18:41;;;;;;;55.07;25.13;;;;;;;;;;4972161;28;20469;-61
2023/01/20 07:21:11;;;;;;;34.27;15.13;;;;;;;;;;4973597;28;20805;-61
2023/01/20 07:23:37;;;;;;;32.53;16.17;;;;;;;;;;4973335;28;20440;-61
2023/01/20 07:26:08;;;;;;;37.13;16.63;;;;;;;;;;4973656;28;20437;-61
2023/01/20 07:28:35;;;;;;;34.63;17.10;;;;;;;;;;4973324;28;20429;-61
2023/01/20 07:31:05;;;;;;;34.80;16.53;;;;;;;;;;4973388;28;20495;-62
2023/01/20 07:33:32;;;;;;;34.33;16.33;;;;;;;;;;4973240;28;20511;-61
2023/01/20 07:35:59;;;;;;;37.97;18.33;;;;;;;;;;4973400;28;21100;-62
2023/01/20 07:38:25;;;;;;;35.80;16.50;;;;;;;;;;4973375;28;20430;-61
2023/01/20 07:40:52;;;;;;;37.50;17.07;;;;;;;;;;4973317;28;20429;-61
2023/01/20 07:43:18;;;;;;;40.50;18.00;;;;;;;;;;4972758;28;20463;-61
2023/01/20 07:45:45;;;;;;;41.93;19.53;;;;;;;;;;4972974;28;20437;-61
2023/01/20 07:48:12;;;;;;;50.67;22.00;;;;;;;;;;4972787;28;20432;-61
2023/01/20 07:50:38;;;;;;;40.17;18.87;;;;;;;;;;4973215;28;20452;-61
2023/01/20 07:53:23;;;;;;;38.60;18.33;;;;;;;;;;4973062;28;20507;-61
2023/01/20 07:55:49;;;;;;;49.20;20.30;;;;;;;;;;4972994;28;20461;-61
2023/01/20 07:58:33;;;;;;;43.73;18.60;;;;;;;;;;4972647;28;20420;-61
2023/01/20 08:01:06;;;;;;;40.30;19.57;;;;;;;;;;4972523;28;20789;-61
2023/01/20 08:03:34;;;;;;;43.63;17.57;;;;;;;;;;4972473;28;20516;-61
2023/01/20 08:06:01;;;;;;;39.80;18.00;;;;;;;;;;4972786;28;20491;-61
2023/01/20 08:08:28;;;;;;;47.47;20.00;;;;;;;;;;4972780;28;20436;-61
2023/01/20 08:10:56;;;;;;;42.97;19.60;;;;;;;;;;4972515;28;20429;-62
2023/01/20 08:13:23;;;;;;;43.17;18.30;;;;;;;;;;4972098;28;21043;-62
2023/01/20 08:15:49;;;;;;;40.03;18.97;;;;;;;;;;4972418;28;20425;-61
2023/01/20 08:18:16;;;;;;;45.47;20.33;;;;;;;;;;4972172;28;20467;-61
2023/01/20 08:20:43;;;;;;;43.13;19.57;;;;;;;;;;4972561;28;20445;-61
2023/01/20 08:23:09;;;;;;;48.00;19.80;;;;;;;;;;4972302;28;20441;-61
2023/01/20 08:25:36;;;;;;;37.40;17.77;;;;;;;;;;4972412;28;21007;-61
2023/01/20 08:28:03;;;;;;;44.23;18.27;;;;;;;;;;4971882;28;20448;-61
2023/01/20 08:30:31;;;;;;;36.33;17.27;;;;;;;;;;4972299;28;20516;-61
2023/01/20 08:32:58;;;;;;;35.60;16.10;;;;;;;;;;4972095;28;20425;-62
2023/01/20 08:35:25;;;;;;;39.63;17.87;;;;;;;;;;4955335;28;20554;-61
2023/01/20 08:37:51;;;;;;;40.23;17.27;;;;;;;;;;4971992;28;20441;-62
2023/01/20 08:40:36;;;;;;;37.80;16.93;;;;;;;;;;4971007;28;20423;-61
2023/01/20 08:43:03;;;;;;;43.17;17.63;;;;;;;;;;4971675;28;20421;-61
2023/01/20 08:45:56;;;;;;;40.97;17.97;;;;;;;;;;4971942;28;20899;-61
2023/01/20 08:48:23;;;;;;;44.30;18.90;;;;;;;;;;4971818;28;20447;-61
2023/01/20 08:51:12;;;;;;;43.53;18.87;;;;;;;;;;4971567;28;20430;-61
2023/01/20 08:53:39;;;;;;;45.40;19.33;;;;;;;;;;4971637;28;20798;-61
2023/01/20 08:56:06;;;;;;;44.87;18.93;;;;;;;;;;4972390;28;20475;-61
2023/01/20 08:58:33;;;;;;;45.67;18.90;;;;;;;;;;4971590;28;20448;-61
2023/01/20 09:00:59;;;;;;;45.80;20.20;;;;;;;;;;4970635;28;20437;-61
2023/01/20 09:03:26;;;;;;;50.43;19.73;;;;;;;;;;4971394;28;20484;-62
2023/01/20 09:05:53;;;;;;;50.13;21.90;;;;;;;;;;4971726;28;20459;-61
2023/01/20 09:08:19;;;;;;;48.97;21.20;;;;;;;;;;4971960;28;20445;-61
2023/01/20 09:10:46;;;;;;;49.30;22.87;;;;;;;;;;4971596;28;20436;-61
2023/01/20 09:13:13;;;;;;;45.03;20.77;;;;;;;;;;4971273;28;20451;-61
2023/01/20 09:15:39;;;;;;;47.87;20.63;;;;;;;;;;4970918;28;20475;-61
2023/01/20 09:18:24;;;;;;;48.30;20.73;;;;;;;;;;4971047;28;20474;-61
2023/01/20 09:20:50;;;;;;;47.43;19.77;;;;;;;;;;4971124;28;20440;-61
2023/01/20 09:23:35;;;;;;;48.37;20.30;;;;;;;;;;4971600;28;20429;-60
2023/01/20 09:26:02;;;;;;;46.73;20.57;;;;;;;;;;4971512;28;20436;-60
2023/01/20 09:28:47;;;;;;;49.43;19.50;;;;;;;;;;4970989;28;20499;-61
2023/01/20 09:31:13;;;;;;;47.63;19.57;;;;;;;;;;4971203;28;20428;-61
2023/01/20 09:33:58;;;;;;;41.63;16.70;;;;;;;;;;4971107;28;20448;-61
2023/01/20 09:36:26;;;;;;;40.73;18.73;;;;;;;;;;4969940;28;21007;-60
2023/01/20 09:44:42;;;;;;;40.17;18.60;;;;;;;;;;4970978;28;20856;-62
2023/01/20 09:47:24;;;;;;;42.73;18.97;;;;;;;;;;4971280;28;20429;-61
2023/01/20 09:53:01;;;;;;;43.93;18.90;;;;;;;;;;4970814;28;20437;-60
2023/01/20 09:55:28;;;;;;;39.50;18.57;;;;;;;;;;4970708;28;20531;-61
2023/01/20 09:58:01;;;;;;;41.60;19.20;;;;;;;;;;4970720;28;20788;-61
2023/01/20 10:00:28;;;;;;;44.20;19.47;;;;;;;;;;4970808;28;20499;-61
2023/01/20 10:02:56;;;;;;;43.90;19.13;;;;;;;;;;4970845;28;21372;-61
2023/01/20 10:05:24;;;;;;;43.10;19.93;;;;;;;;;;4969922;28;20532;-61
2023/01/20 10:07:54;;;;;;;44.17;20.30;;;;;;;;;;4969690;28;20433;-61
2023/01/20 10:10:22;;;;;;;47.90;20.40;;;;;;;;;;4970743;28;20445;-61
2023/01/20 10:12:49;;;;;;;43.13;19.70;;;;;;;;;;4970352;28;20536;-62
2023/01/20 10:15:25;;;;;;;46.23;19.73;;;;;;;;;;4970664;28;20468;-61
2023/01/20 10:18:11;;;;;;;48.30;21.30;;;;;;;;;;4970620;28;20800;-61
2023/01/20 10:20:46;;;;;;;45.50;22.47;;;;;;;;;;4970583;28;20959;-61
2023/01/20 10:23:15;;;;;;;45.30;21.43;;;;;;;;;;4951867;28;20445;-61
2023/01/20 10:25:51;;;;;;;54.20;22.10;;;;;;;;;;4966877;28;20433;-62
2023/01/20 10:28:25;;;;;;;47.33;20.43;;;;;;;;;;4955350;28;20445;-61
2023/01/20 10:30:57;;;;;;;43.80;20.50;;;;;;;;;;4955344;29;20470;-61
2023/01/20 10:33:37;;;;;;;44.53;18.50;;;;;;;;;;4970010;28;20513;-61
2023/01/20 10:36:07;;;;;;;43.83;19.27;;;;;;;;;;4955276;28;20516;-61
2023/01/20 10:38:37;;;;;;;43.80;20.10;;;;;;;;;;4970042;28;20441;-61
2023/01/20 10:41:17;;;;;;;46.97;21.10;;;;;;;;;;4954422;29;20516;-61
2023/01/20 10:44:02;;;;;;;48.77;21.87;;;;;;;;;;4955463;28;20437;-61
2023/01/20 10:46:29;;;;;;;47.57;22.00;;;;;;;;;;4969701;28;20889;-61
2023/01/20 10:48:55;;;;;;;45.63;20.77;;;;;;;;;;4954945;28;20430;-61
2023/01/20 10:51:22;;;;;;;50.83;22.10;;;;;;;;;;4954793;28;20492;-61
2023/01/20 10:53:49;;;;;;;47.77;20.17;;;;;;;;;;4954869;28;20801;-62
2023/01/20 10:56:19;;;;;;;57.60;24.80;;;;;;;;;;4954799;28;20481;-61
2023/01/20 10:58:46;;;;;;;52.53;23.40;;;;;;;;;;4969416;28;20441;-61
2023/01/20 11:01:14;;;;;;;52.97;23.93;;;;;;;;;;4954691;28;20429;-61
2023/01/20 11:03:42;;;;;;;53.50;23.37;;;;;;;;;;4969536;28;20437;-61
2023/01/20 11:06:26;;;;;;;52.27;22.70;;;;;;;;;;4969306;28;20425;-61
2023/01/20 11:08:54;;;;;;;52.23;24.23;;;;;;;;;;4954707;28;20429;-61
2023/01/20 11:11:21;;;;;;;48.17;22.30;;;;;;;;;;4969488;28;20834;-61
2023/01/20 11:13:50;;;;;;;48.27;22.17;;;;;;;;;;4954314;28;20433;-61
2023/01/20 11:16:23;;;;;;;48.20;21.33;;;;;;;;;;4954671;28;20469;-61
2023/01/20 11:18:54;;;;;;;49.20;22.47;;;;;;;;;;4954033;28;20540;-62
2023/01/20 11:21:24;;;;;;;50.57;21.27;;;;;;;;;;4959341;28;20436;-61
2023/01/20 11:23:51;;;;;;;51.03;22.63;;;;;;;;;;4972411;28;21133;-61
2023/01/20 11:26:22;;;;;;;48.23;21.10;;;;;;;;;;4973638;28;20944;-61
2023/01/20 11:28:54;;;;;;;48.83;21.90;;;;;;;;;;4974053;28;20440;-61
2023/01/20 11:31:22;;;;;;;47.43;21.43;;;;;;;;;;4972171;28;20437;-62
2023/01/20 11:33:56;;;;;;;48.43;22.07;;;;;;;;;;4972272;28;20437;-61
2023/01/20 11:36:40;;;;;;;48.90;21.43;;;;;;;;;;4973519;28;20433;-61
2023/01/20 11:39:11;;;;;;;54.10;22.20;;;;;;;;;;4971741;28;20516;-61
2023/01/20 11:41:38;;;;;;;42.77;18.27;;;;;;;;;;4971775;28;20452;-61
2023/01/20 11:44:05;;;;;;;44.30;20.03;;;;;;;;;;4973614;28;20444;-61
2023/01/20 11:46:32;;;;;;;43.07;18.17;;;;;;;;;;4972878;28;20516;-61
2023/01/20 11:49:17;;;;;;;38.83;17.43;;;;;;;;;;4972073;28;20474;-61
2023/01/20 11:51:47;;;;;;;41.80;19.57;;;;;;;;;;4972948;28;20433;-61
2023/01/20 11:54:31;;;;;;;37.80;17.17;;;;;;;;;;4972985;28;20908;-61
2023/01/20 11:57:03;;;;;;;39.07;17.70;;;;;;;;;;4972683;28;20424;-61
2023/01/20 11:59:30;;;;;;;35.83;17.03;;;;;;;;;;4971852;28;20503;-61
2023/01/20 12:01:59;;;;;;;33.13;17.03;;;;;;;;;;4971691;28;20457;-61
2023/01/20 12:04:25;;;;;;;35.33;17.07;;;;;;;;;;4972655;28;20452;-62
2023/01/20 12:06:53;;;;;;;43.07;20.43;;;;;;;;;;4972724;28;20437;-61
2023/01/20 12:09:21;;;;;;;46.20;21.13;;;;;;;;;;4971486;28;20433;-61
2023/01/20 12:11:52;;;;;;;44.07;20.73;;;;;;;;;;4972391;28;20460;-61
2023/01/20 12:14:47;;;;;;;39.73;19.07;;;;;;;;;;4971424;28;20460;-61
2023/01/20 12:17:20;;;;;;;44.63;21.03;;;;;;;;;;4972862;28;20528;-61
2023/01/20 12:19:47;;;;;;;43.93;19.83;;;;;;;;;;4972270;28;21043;-61
2023/01/20 12:22:17;;;;;;;56.80;23.07;;;;;;;;;;4972338;28;20429;-61
2023/01/20 12:27:29;;;;;;;39.87;18.57;;;;;;;;;;4971960;28;20433;-62
2023/01/20 12:29:57;;;;;;;42.70;20.37;;;;;;;;;;4987336;28;20437;-61
2023/01/20 12:32:24;;;;;;;35.70;18.13;;;;;;;;;;4972304;28;20956;-61
2023/01/20 12:34:53;;;;;;;41.57;19.23;;;;;;;;;;4971180;28;20462;-61
2023/01/20 12:37:44;;;;;;;38.53;18.63;;;;;;;;;;4972026;28;20964;-61
2023/01/20 12:40:10;;;;;;;36.80;17.20;;;;;;;;;;4971992;28;20963;-61
2023/01/20 12:42:37;;;;;;;34.93;16.03;;;;;;;;;;4971767;28;20444;-61
2023/01/20 12:45:13;;;;;;;34.00;16.77;;;;;;;;;;4972165;28;20464;-61
2023/01/20 12:48:03;;;;;;;43.43;24.10;;;;;;;;;;4972009;28;20436;-61
2023/01/20 12:50:30;;;;;;;58.03;20.77;;;;;;;;;;4971171;28;20808;-61
2023/01/20 12:53:23;;;;;;;41.73;17.97;;;;;;;;;;4971934;28;20424;-61
2023/01/20 12:55:55;;;;;;;34.30;17.47;;;;;;;;;;4970469;28;20528;-61
2023/01/20 12:58:31;;;;;;;41.27;18.07;;;;;;;;;;4971555;28;20433;-61
2023/01/20 13:01:14;;;;;;;39.97;19.23;;;;;;;;;;4971598;28;20464;-61
2023/01/20 13:03:47;;;;;;;37.63;17.07;;;;;;;;;;4971815;28;20437;-61
2023/01/20 13:06:24;;;;;;;47.53;21.20;;;;;;;;;;4971517;28;20488;-61
2023/01/20 13:08:51;;;;;;;37.07;17.70;;;;;;;;;;4971812;28;20957;-61
2023/01/20 13:11:17;;;;;;;35.50;17.27;;;;;;;;;;4971774;28;20793;-61
2023/01/20 13:14:03;;;;;;;38.50;18.43;;;;;;;;;;4971623;28;20437;-61
2023/01/20 13:16:35;;;;;;;36.80;18.20;;;;;;;;;;4971213;28;20967;-61
2023/01/20 13:19:07;;;;;;;43.33;18.90;;;;;;;;;;4971206;28;20474;-61
2023/01/20 13:21:34;;;;;;;38.33;18.50;;;;;;;;;;4969938;28;20484;-61
2023/01/20 13:24:00;;;;;;;36.60;17.47;;;;;;;;;;4971453;28;20829;-62
2023/01/20 13:26:28;;;;;;;32.63;17.37;;;;;;;;;;4970055;28;20445;-61
2023/01/20 13:28:55;;;;;;;38.37;17.60;;;;;;;;;;4971397;28;20789;-61
2023/01/20 13:31:27;;;;;;;35.57;17.20;;;;;;;;;;4969898;28;20436;-62
2023/01/20 13:33:54;;;;;;;37.83;17.80;;;;;;;;;;4971329;28;20440;-61
2023/01/20 13:36:21;;;;;;;36.67;17.20;;;;;;;;;;4969687;28;20480;-62
2023/01/20 13:39:11;;;;;;;41.37;17.67;;;;;;;;;;4970923;28;20445;-62
2023/01/20 13:41:47;;;;;;;38.10;19.17;;;;;;;;;;4952108;28;20488;-62
2023/01/20 13:44:44;;;;;;;38.00;18.30;;;;;;;;;;4971285;28;20495;-62
2023/01/20 13:47:11;;;;;;;45.03;19.33;;;;;;;;;;4962812;28;20535;-61
2023/01/20 13:49:41;;;;;;;36.53;17.50;;;;;;;;;;4969919;28;20435;-61
2023/01/20 13:52:10;;;;;;;43.90;19.17;;;;;;;;;;4970707;28;20441;-62
2023/01/20 13:54:40;;;;;;;40.23;18.03;;;;;;;;;;4971091;28;20909;-61
2023/01/20 13:57:26;;;;;;;38.73;18.57;;;;;;;;;;4970446;28;20504;-63
2023/01/20 13:59:54;;;;;;;41.83;19.13;;;;;;;;;;4970974;28;20520;-61
2023/01/20 14:02:21;;;;;;;37.23;18.77;;;;;;;;;;4969660;28;20429;-61
2023/01/20 14:04:48;;;;;;;35.77;17.10;;;;;;;;;;4969723;28;20433;-61
2023/01/20 14:07:25;;;;;;;38.30;18.17;;;;;;;;;;4970806;28;20436;-62
2023/01/20 14:09:52;;;;;;;44.87;20.20;;;;;;;;;;4970763;28;20448;-61
2023/01/20 14:12:19;;;;;;;37.70;19.30;;;;;;;;;;4970609;28;20472;-61
2023/01/20 14:14:49;;;;;;;43.93;20.07;;;;;;;;;;4970481;28;20443;-62
2023/01/20 14:17:16;;;;;;;34.77;18.10;;;;;;;;;;4970882;28;20492;-62
2023/01/20 14:19:49;;;;;;;38.67;18.50;;;;;;;;;;4969463;28;20943;-61
2023/01/20 14:22:22;;;;;;;37.70;19.27;;;;;;;;;;4969301;28;20447;-61
2023/01/20 14:24:51;;;;;;;39.33;19.17;;;;;;;;;;4970435;28;20444;-61
2023/01/20 14:27:18;;;;;;;38.73;17.70;;;;;;;;;;4969213;28;20436;-62
2023/01/20 14:29:45;;;;;;;39.13;17.50;;;;;;;;;;4970689;28;20433;-61
2023/01/20 14:32:18;;;;;;;39.20;18.90;;;;;;;;;;4970854;28;20439;-61
2023/01/20 14:34:48;;;;;;;39.17;18.27;;;;;;;;;;4970485;28;20440;-61
2023/01/20 14:37:28;;;;;;;37.00;18.47;;;;;;;;;;4969284;28;20481;-61
2023/01/20 14:39:58;;;;;;;37.17;17.97;;;;;;;;;;4969460;28;20507;-61
2023/01/20 14:42:26;;;;;;;40.43;19.37;;;;;;;;;;4970312;28;20433;-61
2023/01/20 14:44:53;;;;;;;39.43;19.33;;;;;;;;;;4970547;28;20433;-61
2023/01/20 14:47:20;;;;;;;35.97;17.67;;;;;;;;;;4970646;28;20523;-60
2023/01/20 14:50:04;;;;;;;36.77;16.77;;;;;;;;;;4967728;28;20572;-62
2023/01/20 14:52:31;;;;;;;33.47;16.83;;;;;;;;;;4971250;28;21136;-62
2023/01/20 14:54:58;;;;;;;34.63;17.43;;;;;;;;;;4968564;28;20441;-61
2023/01/20 14:57:35;;;;;;;35.63;17.43;;;;;;;;;;4969246;28;20436;-62
2023/01/20 15:00:17;;;;;;;34.90;17.60;;;;;;;;;;4967995;28;20447;-61
2023/01/20 15:02:48;;;;;;;35.97;17.03;;;;;;;;;;4957655;28;20838;-62
2023/01/20 15:05:32;;;;;;;32.57;16.73;;;;;;;;;;4968881;28;20448;-61
2023/01/20 15:08:13;;;;;;;36.90;18.10;;;;;;;;;;4969022;28;20520;-61
2023/01/20 15:11:15;;;;;;;42.90;22.50;;;;;;;;;;4969104;28;20433;-63
2023/01/20 15:13:52;;;;;;;39.33;19.50;;;;;;;;;;4971394;28;20437;-61
2023/01/20 15:16:24;;;;;;;41.13;21.47;;;;;;;;;;4960613;28;20476;-61
2023/01/20 15:19:09;;;;;;;41.17;18.90;;;;;;;;;;4971650;28;20567;-62
2023/01/20 15:21:37;;;;;;;41.97;18.87;;;;;;;;;;4983842;28;20525;-61
2023/01/20 15:24:22;;;;;;;37.33;17.90;;;;;;;;;;4967649;28;20425;-61
2023/01/20 15:26:50;;;;;;;42.40;19.43;;;;;;;;;;4972732;28;20443;-61
2023/01/20 15:29:23;;;;;;;39.93;19.43;;;;;;;;;;4972618;28;20437;-61